Time;durP1;ratioP1;P1;durP2;ratioP2;P2;SDS_P1;SDS_P2;PMS_P1;PMS_P2;Temp;Humidity;BMP_temperature;BMP_pressure;BME280_temperature;BME280_humidity;BME280_pressure;Samples;Min_cycle;Max_cycle;Signal;HPM_P1;HPM_P2
2022/05/01 00:00:26;;;;;;;50.30;29.02;;;;;;;-143.53;100.00;58366.03;2074147;28;20212;-64
2022/05/01 00:01:27;;;;;;;54.90;30.30;;;;;;;-143.53;100.00;58366.03;2084747;28;20215;-64
2022/05/01 00:02:29;;;;;;;49.13;29.55;;;;;;;-143.53;100.00;58366.03;2086640;28;20212;-64
2022/05/01 00:03:31;;;;;;;53.22;29.95;;;;;;;-143.53;100.00;58366.03;2082374;28;20196;-65
2022/05/01 00:04:34;;;;;;;48.33;28.98;;;;;;;-143.53;100.00;58366.03;2084859;28;20201;-64
2022/05/01 00:05:35;;;;;;;52.67;29.10;;;;;;;-143.53;100.00;58366.03;2084462;28;20196;-64
2022/05/01 00:06:37;;;;;;;54.75;31.65;;;;;;;-143.53;100.00;58366.03;2081529;28;20200;-65
2022/05/01 00:07:38;;;;;;;46.58;28.85;;;;;;;-143.53;100.00;58366.03;2082521;28;20199;-64
2022/05/01 00:08:42;;;;;;;52.70;29.15;;;;;;;-143.53;100.00;58366.03;2083005;28;20209;-64
2022/05/01 00:09:43;;;;;;;50.88;26.70;;;;;;;-143.53;100.00;58366.03;2083167;28;20203;-64
2022/05/01 00:10:45;;;;;;;56.63;28.65;;;;;;;-143.53;100.00;58366.03;2083112;28;20486;-64
2022/05/01 00:12:13;;;;;;;49.78;27.30;;;;;;;-143.53;100.00;58366.03;2082026;28;20215;-65
2022/05/01 00:13:15;;;;;;;53.80;29.50;;;;;;;-143.53;100.00;58366.03;2085482;28;20199;-64
2022/05/01 00:14:17;;;;;;;56.45;29.65;;;;;;;-143.53;100.00;58366.03;2084072;28;20203;-65
2022/05/01 00:15:18;;;;;;;53.22;28.08;;;;;;;-143.53;100.00;58366.03;2081660;28;20197;-64
2022/05/01 00:16:20;;;;;;;47.65;28.10;;;;;;;-143.53;100.00;58366.03;2084090;28;20223;-64
2022/05/01 00:17:21;;;;;;;58.97;29.10;;;;;;;-143.53;100.00;58366.03;2083740;28;20200;-64
2022/05/01 00:18:23;;;;;;;48.38;27.98;;;;;;;-143.53;100.00;58366.03;2086147;28;20192;-64
2022/05/01 00:19:25;;;;;;;54.33;29.50;;;;;;;-143.53;100.00;58366.03;2087099;28;20216;-64
2022/05/01 00:20:47;;;;;;;52.10;27.40;;;;;;;-143.53;100.00;58366.03;2085802;28;20211;-65
2022/05/01 00:21:48;;;;;;;50.92;26.40;;;;;;;-143.53;100.00;58366.03;2085423;28;20211;-64
2022/05/01 00:22:50;;;;;;;45.55;27.92;;;;;;;-143.53;100.00;58366.03;2083756;28;20199;-64
2022/05/01 00:23:51;;;;;;;49.53;27.80;;;;;;;-143.53;100.00;58366.03;2084818;28;20209;-65
2022/05/01 00:24:53;;;;;;;47.45;29.15;;;;;;;-143.53;100.00;58366.03;2084467;28;20676;-65
2022/05/01 00:25:55;;;;;;;55.70;31.48;;;;;;;-143.53;100.00;58366.03;2082393;28;20247;-64
2022/05/01 00:26:57;;;;;;;63.92;29.42;;;;;;;-143.53;100.00;58366.03;2082670;28;20193;-64
2022/05/01 00:27:58;;;;;;;55.30;30.20;;;;;;;-143.53;100.00;58366.03;2082774;28;20197;-64
2022/05/01 00:29:06;;;;;;;59.20;30.70;;;;;;;-143.53;100.00;58366.03;2086460;28;20757;-64
2022/05/01 00:30:08;;;;;;;63.58;30.80;;;;;;;-143.53;100.00;58366.03;2082021;28;20559;-65
2022/05/01 00:31:10;;;;;;;55.10;29.92;;;;;;;-143.53;100.00;58366.03;2080758;28;20220;-64
2022/05/01 00:32:11;;;;;;;57.92;30.20;;;;;;;-143.53;100.00;58366.03;2082923;28;20667;-65
2022/05/01 00:37:13;;;;;;;93.82;33.05;;;;;;;-143.53;100.00;58366.03;2085953;28;20753;-65
2022/05/01 00:38:15;;;;;;;74.80;32.28;;;;;;;-143.53;100.00;58366.03;2082855;28;20208;-65
2022/05/01 00:39:16;;;;;;;65.40;32.45;;;;;;;-143.53;100.00;58366.03;2077636;28;20197;-64
2022/05/01 00:40:18;;;;;;;76.78;34.75;;;;;;;-143.53;100.00;58366.03;2078154;28;20198;-65
2022/05/01 00:41:21;;;;;;;91.78;33.53;;;;;;;-143.53;100.00;58366.03;2076962;28;20224;-65
2022/05/01 00:42:23;;;;;;;75.63;34.03;;;;;;;-143.53;100.00;58366.03;2079105;28;20197;-65
2022/05/01 00:43:25;;;;;;;65.57;31.65;;;;;;;-143.53;100.00;58366.03;2084046;28;20208;-64
2022/05/01 00:44:27;;;;;;;78.53;33.92;;;;;;;-143.53;100.00;58366.03;2084935;28;20235;-65
2022/05/01 00:45:29;;;;;;;66.45;31.10;;;;;;;-143.53;100.00;58366.03;2083812;28;20243;-65
2022/05/01 00:46:32;;;;;;;57.15;32.45;;;;;;;-143.53;100.00;58366.03;2082998;28;20262;-62
2022/05/01 00:47:34;;;;;;;57.78;30.20;;;;;;;-143.53;100.00;58366.03;2083056;28;20193;-62
2022/05/01 00:48:35;;;;;;;67.38;31.88;;;;;;;-143.53;100.00;58366.03;2083311;28;20197;-62
2022/05/01 00:49:37;;;;;;;61.22;32.47;;;;;;;-143.53;100.00;58366.03;2083266;28;20644;-62
2022/05/01 00:50:39;;;;;;;68.00;32.53;;;;;;;-143.53;100.00;58366.03;2080339;28;20587;-62
2022/05/01 00:51:46;;;;;;;64.45;33.55;;;;;;;-143.53;100.00;58366.03;2081107;28;20597;-62
2022/05/01 00:52:47;;;;;;;58.80;31.02;;;;;;;-143.53;100.00;58366.03;2081735;28;20205;-62
2022/05/01 00:53:49;;;;;;;65.13;30.55;;;;;;;-143.53;100.00;58366.03;2082060;28;20198;-62
2022/05/01 00:54:51;;;;;;;65.68;33.90;;;;;;;-143.53;100.00;58366.03;2083431;28;20211;-62
2022/05/01 00:55:52;;;;;;;68.22;32.08;;;;;;;-143.53;100.00;58366.03;2081082;28;20208;-62
2022/05/01 00:56:56;;;;;;;71.07;32.90;;;;;;;-143.53;100.00;58366.03;2083715;28;20207;-62
2022/05/01 00:57:59;;;;;;;65.53;34.25;;;;;;;-143.53;100.00;58366.03;2084533;28;20205;-61
2022/05/01 00:59:01;;;;;;;69.53;33.70;;;;;;;-143.53;100.00;58366.03;2086882;28;20204;-62
2022/05/01 01:00:04;;;;;;;75.07;34.20;;;;;;;-143.53;100.00;58366.03;2084883;28;20548;-61
2022/05/01 01:01:08;;;;;;;80.40;34.22;;;;;;;-143.53;100.00;58366.03;2083611;28;20215;-61
2022/05/01 01:02:10;;;;;;;75.15;34.25;;;;;;;-143.53;100.00;58366.03;2085998;28;20262;-62
2022/05/01 01:03:12;;;;;;;63.50;34.40;;;;;;;-143.53;100.00;58366.03;2085103;28;20283;-62
2022/05/01 01:04:14;;;;;;;76.03;31.50;;;;;;;-143.53;100.00;58366.03;2083435;28;20342;-62
2022/05/01 01:05:16;;;;;;;73.85;33.95;;;;;;;-143.53;100.00;58366.03;2084546;28;20398;-62
2022/05/01 01:06:17;;;;;;;62.88;34.60;;;;;;;-143.53;100.00;58366.03;2084292;28;20232;-61
2022/05/01 01:07:19;;;;;;;72.93;32.17;;;;;;;-143.53;100.00;58366.03;2075755;28;20223;-62
2022/05/01 01:08:21;;;;;;;65.78;33.65;;;;;;;-143.53;100.00;58366.03;2084782;28;20816;-62
2022/05/01 01:09:22;;;;;;;65.43;33.45;;;;;;;-143.53;100.00;58366.03;2086359;28;20554;-62
2022/05/01 01:10:24;;;;;;;65.10;33.40;;;;;;;-143.53;100.00;58366.03;2083446;28;20226;-62
2022/05/01 01:11:26;;;;;;;65.50;32.80;;;;;;;-143.53;100.00;58366.03;2087090;28;20227;-62
2022/05/01 01:13:49;;;;;;;56.08;30.98;;;;;;;-143.53;100.00;58366.03;2083874;28;20556;-62
2022/05/01 01:14:50;;;;;;;59.53;33.38;;;;;;;-143.53;100.00;58366.03;2084649;28;20196;-62
2022/05/01 01:15:52;;;;;;;65.72;33.50;;;;;;;-143.53;100.00;58366.03;2084381;28;20214;-62
2022/05/01 01:16:53;;;;;;;69.43;32.65;;;;;;;-143.53;100.00;58366.03;2084535;28;20236;-62
2022/05/01 01:17:56;;;;;;;61.75;30.33;;;;;;;-143.53;100.00;58366.03;2084589;28;20214;-62
2022/05/01 01:18:58;;;;;;;64.13;32.40;;;;;;;-143.53;100.00;58366.03;2086191;28;20196;-62
2022/05/01 01:19:59;;;;;;;63.25;36.17;;;;;;;-143.53;100.00;58366.03;2085741;28;20192;-62
2022/05/01 01:21:01;;;;;;;68.40;33.78;;;;;;;-143.53;100.00;58366.03;2085368;28;20220;-62
2022/05/01 01:22:06;;;;;;;69.80;34.30;;;;;;;-143.53;100.00;58366.03;2087275;28;20211;-62
2022/05/01 01:23:08;;;;;;;76.43;32.63;;;;;;;-143.53;100.00;58366.03;2086186;28;20193;-62
2022/05/01 01:24:10;;;;;;;73.10;36.08;;;;;;;-143.53;100.00;58366.03;2085472;28;20220;-61
2022/05/01 01:25:12;;;;;;;74.93;36.80;;;;;;;-143.53;100.00;58366.03;2085147;28;20572;-62
2022/05/01 01:26:14;;;;;;;81.75;36.10;;;;;;;-143.53;100.00;58366.03;2085332;28;20216;-62
2022/05/01 01:27:16;;;;;;;82.70;35.05;;;;;;;-143.53;100.00;58366.03;2084577;28;20200;-62
2022/05/01 01:28:18;;;;;;;77.53;34.97;;;;;;;-143.53;100.00;58366.03;2084903;28;20197;-62
2022/05/01 01:32:08;;;;;;;66.93;34.38;;;;;;;-143.53;100.00;58366.03;2086679;28;20193;-62
2022/05/01 01:33:10;;;;;;;68.00;34.92;;;;;;;-143.53;100.00;58366.03;2083403;28;20219;-62
2022/05/01 01:34:14;;;;;;;76.32;33.88;;;;;;;-143.53;100.00;58366.03;2083384;28;20196;-62
2022/05/01 01:35:18;;;;;;;68.38;34.05;;;;;;;-143.53;100.00;58366.03;2086032;28;20201;-62
2022/05/01 01:36:26;;;;;;;82.13;34.38;;;;;;;-143.53;100.00;58366.03;2084591;28;20217;-62
2022/05/01 01:37:28;;;;;;;74.82;34.20;;;;;;;-143.53;100.00;58366.03;2086718;28;20196;-62
2022/05/01 01:38:30;;;;;;;79.05;35.35;;;;;;;-143.53;100.00;58366.03;2084689;28;20193;-62
2022/05/01 01:39:32;;;;;;;79.05;36.75;;;;;;;-143.53;100.00;58366.03;2085069;28;20207;-62
2022/05/01 01:40:54;;;;;;;73.30;34.85;;;;;;;-143.53;100.00;58366.03;2084686;28;20197;-62
2022/05/01 01:41:57;;;;;;;70.78;34.95;;;;;;;-143.53;100.00;58366.03;2083591;28;20601;-62
2022/05/01 01:42:58;;;;;;;79.53;35.90;;;;;;;-143.53;100.00;58366.03;2084075;28;20602;-62
2022/05/01 01:44:00;;;;;;;70.30;35.17;;;;;;;-143.53;100.00;58366.03;2083500;28;20217;-62
2022/05/01 01:45:02;;;;;;;74.07;35.15;;;;;;;-143.53;100.00;58366.03;2084130;28;20236;-62
2022/05/01 01:46:04;;;;;;;85.80;37.58;;;;;;;-143.53;100.00;58366.03;2084205;28;20224;-62
2022/05/01 01:47:06;;;;;;;83.60;38.47;;;;;;;-143.53;100.00;58366.03;2081895;28;20197;-62
2022/05/01 01:48:16;;;;;;;84.65;38.50;;;;;;;-143.53;100.00;58366.03;2082446;28;20193;-62
2022/05/01 01:49:18;;;;;;;76.72;36.10;;;;;;;-143.53;100.00;58366.03;2082438;28;20558;-62
2022/05/01 01:50:20;;;;;;;83.25;36.47;;;;;;;-143.53;100.00;58366.03;2083640;28;20236;-62
2022/05/01 01:51:21;;;;;;;84.05;36.33;;;;;;;-143.53;100.00;58366.03;2083729;28;20225;-62
2022/05/01 01:52:23;;;;;;;98.32;36.83;;;;;;;-143.53;100.00;58366.03;2083178;28;20197;-63
2022/05/01 01:53:25;;;;;;;84.07;39.13;;;;;;;-143.53;100.00;58366.03;2084718;28;20236;-62
2022/05/01 01:54:27;;;;;;;93.65;37.53;;;;;;;-143.53;100.00;58366.03;2084632;28;20193;-62
2022/05/01 01:55:33;;;;;;;80.82;38.30;;;;;;;-143.53;100.00;58366.03;2086481;28;20196;-62
2022/05/01 01:56:34;;;;;;;84.03;37.15;;;;;;;-143.53;100.00;58366.03;2075411;28;20209;-62
2022/05/01 01:57:36;;;;;;;84.90;38.28;;;;;;;-143.53;100.00;58366.03;2082962;28;20193;-62
2022/05/01 01:58:39;;;;;;;82.18;35.58;;;;;;;-143.53;100.00;58366.03;2084826;28;20193;-62
2022/05/01 01:59:41;;;;;;;80.68;37.15;;;;;;;-143.53;100.00;58366.03;2084323;28;20204;-62
2022/05/01 02:00:43;;;;;;;82.90;37.40;;;;;;;-143.53;100.00;58366.03;2083807;28;20210;-62
2022/05/01 02:01:45;;;;;;;73.47;36.45;;;;;;;-143.53;100.00;58366.03;2084834;28;20197;-62
2022/05/01 02:02:46;;;;;;;86.60;38.83;;;;;;;-143.53;100.00;58366.03;2084035;28;20250;-62
2022/05/01 02:03:48;;;;;;;86.90;37.65;;;;;;;-143.53;100.00;58366.03;2084831;28;20256;-62
2022/05/01 02:04:50;;;;;;;89.93;37.90;;;;;;;-143.53;100.00;58366.03;2081634;28;20668;-68
2022/05/01 02:05:52;;;;;;;84.63;37.72;;;;;;;-143.53;100.00;58366.03;2083277;28;20200;-69
2022/05/01 02:06:53;;;;;;;76.63;35.45;;;;;;;-143.53;100.00;58366.03;2084724;28;20207;-69
2022/05/01 02:07:55;;;;;;;78.68;37.38;;;;;;;-143.53;100.00;58366.03;2083809;28;20422;-69
2022/05/01 02:08:58;;;;;;;90.10;38.78;;;;;;;-143.53;100.00;58366.03;2084885;28;20231;-69
2022/05/01 02:10:00;;;;;;;85.15;36.92;;;;;;;-143.53;100.00;58366.03;2084942;28;20204;-68
2022/05/01 02:11:05;;;;;;;87.47;37.38;;;;;;;-143.53;100.00;58366.03;2083789;28;20220;-68
2022/05/01 02:12:09;;;;;;;75.70;37.75;;;;;;;-143.53;100.00;58366.03;2084165;28;20246;-69
2022/05/01 02:13:11;;;;;;;81.00;39.35;;;;;;;-143.53;100.00;58366.03;2081511;28;20222;-68
2022/05/01 02:14:12;;;;;;;75.03;36.63;;;;;;;-143.53;100.00;58366.03;2085672;28;20192;-69
2022/05/01 02:15:14;;;;;;;79.15;37.28;;;;;;;-143.53;100.00;58366.03;2084475;28;20870;-68
2022/05/01 02:16:17;;;;;;;86.63;37.42;;;;;;;-143.53;100.00;58366.03;2083882;28;20212;-69
2022/05/01 02:17:20;;;;;;;94.70;39.72;;;;;;;-143.53;100.00;58366.03;2084098;28;20708;-69
2022/05/01 02:18:22;;;;;;;82.22;39.25;;;;;;;-143.53;100.00;58366.03;2083297;28;20203;-69
2022/05/01 02:19:23;;;;;;;82.65;38.15;;;;;;;-143.53;100.00;58366.03;2085347;28;20237;-69
2022/05/01 02:21:34;;;;;;;96.45;41.00;;;;;;;-143.53;100.00;58366.03;2085148;28;20197;-68
2022/05/01 02:21:51;;;;;;;82.18;36.88;;;;;;;-143.53;100.00;58366.03;2084790;28;20231;-68
2022/05/01 02:22:53;;;;;;;96.20;38.90;;;;;;;-143.53;100.00;58366.03;2082888;28;20299;-68
2022/05/01 02:23:55;;;;;;;85.47;39.08;;;;;;;-143.53;100.00;58366.03;2084154;28;20197;-69
2022/05/01 02:24:56;;;;;;;83.32;38.63;;;;;;;-143.53;100.00;58366.03;2079872;28;20204;-68
2022/05/01 02:25:58;;;;;;;91.93;41.13;;;;;;;-143.53;100.00;58366.03;2079575;28;20627;-68
2022/05/01 02:27:00;;;;;;;81.10;40.22;;;;;;;-143.53;100.00;58366.03;2085918;28;20212;-68
2022/05/01 02:28:02;;;;;;;75.18;37.90;;;;;;;-143.53;100.00;58366.03;2084011;28;20197;-68
2022/05/01 02:29:09;;;;;;;83.78;38.63;;;;;;;-143.53;100.00;58366.03;2086159;28;20208;-68
2022/05/01 02:30:11;;;;;;;99.63;39.67;;;;;;;-143.53;100.00;58366.03;2085336;28;20259;-68
2022/05/01 02:31:12;;;;;;;82.82;37.40;;;;;;;-143.53;100.00;58366.03;2082718;28;20715;-69
2022/05/01 02:32:14;;;;;;;75.75;38.70;;;;;;;-143.53;100.00;58366.03;2084912;28;20207;-68
2022/05/01 02:33:16;;;;;;;86.90;37.08;;;;;;;-143.53;100.00;58366.03;2079299;28;20208;-68
2022/05/01 02:34:17;;;;;;;80.85;34.83;;;;;;;-143.53;100.00;58366.03;2077268;28;20196;-68
2022/05/01 02:35:18;;;;;;;85.97;40.13;;;;;;;-143.53;100.00;58366.03;2083971;28;20196;-68
2022/05/01 02:36:20;;;;;;;84.63;37.55;;;;;;;-143.53;100.00;58366.03;2082299;28;20220;-68
2022/05/01 02:37:21;;;;;;;76.57;36.15;;;;;;;-143.53;100.00;58366.03;2082344;28;20228;-68
2022/05/01 02:38:23;;;;;;;77.30;37.60;;;;;;;-143.53;100.00;58366.03;2085068;28;20215;-68
2022/05/01 02:39:25;;;;;;;84.95;36.47;;;;;;;-143.53;100.00;58366.03;2083789;28;20204;-69
2022/05/01 02:40:26;;;;;;;81.93;37.47;;;;;;;-143.53;100.00;58366.03;2082100;28;20204;-68
2022/05/01 02:41:28;;;;;;;77.35;38.13;;;;;;;-143.53;100.00;58366.03;2083161;28;20220;-68
2022/05/01 02:42:30;;;;;;;92.28;37.63;;;;;;;-143.53;100.00;58366.03;2079923;28;20232;-69
2022/05/01 02:43:32;;;;;;;74.80;37.45;;;;;;;-143.53;100.00;58366.03;2083311;28;20205;-69
2022/05/01 02:44:33;;;;;;;80.72;38.05;;;;;;;-143.53;100.00;58366.03;2083841;28;20205;-68
2022/05/01 02:45:36;;;;;;;85.90;38.03;;;;;;;-143.53;100.00;58366.03;2081627;28;20195;-67
2022/05/01 02:46:38;;;;;;;90.30;37.75;;;;;;;-143.53;100.00;58366.03;2082309;28;20204;-68
2022/05/01 02:47:40;;;;;;;76.70;37.70;;;;;;;-143.53;100.00;58366.03;2082317;28;20204;-69
2022/05/01 02:48:42;;;;;;;81.82;35.15;;;;;;;-143.53;100.00;58366.03;2082812;28;20197;-69
2022/05/01 02:49:43;;;;;;;95.80;38.35;;;;;;;-143.53;100.00;58366.03;2083357;28;20246;-69
2022/05/01 02:50:45;;;;;;;76.97;37.08;;;;;;;-143.53;100.00;58366.03;2082847;28;20692;-68
2022/05/01 02:51:48;;;;;;;69.72;35.65;;;;;;;-143.53;100.00;58366.03;2086700;28;20698;-69
2022/05/01 02:52:51;;;;;;;79.75;37.47;;;;;;;-143.53;100.00;58366.03;2081996;28;20204;-69
2022/05/01 02:53:52;;;;;;;75.47;36.22;;;;;;;-143.53;100.00;58366.03;2082282;28;20223;-68
2022/05/01 02:54:54;;;;;;;85.20;35.92;;;;;;;-143.53;100.00;58366.03;2082828;28;20211;-68
2022/05/01 02:55:55;;;;;;;74.35;36.45;;;;;;;-143.53;100.00;58366.03;2083508;28;20424;-68
2022/05/01 02:56:57;;;;;;;77.93;37.15;;;;;;;-143.53;100.00;58366.03;2080791;28;20196;-69
2022/05/01 02:57:58;;;;;;;80.18;36.15;;;;;;;-143.53;100.00;58366.03;2082236;28;20196;-68
2022/05/01 02:59:00;;;;;;;64.50;33.47;;;;;;;-143.53;100.00;58366.03;2083777;28;20200;-69
2022/05/01 03:00:06;;;;;;;71.13;34.25;;;;;;;-143.53;100.00;58366.03;2084354;28;20200;-69
2022/05/01 03:01:07;;;;;;;67.85;32.65;;;;;;;-143.53;100.00;58366.03;2084019;28;20221;-68
2022/05/01 03:02:09;;;;;;;67.30;34.15;;;;;;;-143.53;100.00;58366.03;2084819;28;20651;-69
2022/05/01 03:03:11;;;;;;;72.93;35.92;;;;;;;-143.53;100.00;58366.03;2084747;28;20288;-68
2022/05/01 03:04:13;;;;;;;68.68;32.95;;;;;;;-143.53;100.00;58366.03;2082342;28;20334;-68
2022/05/01 03:05:17;;;;;;;55.92;30.55;;;;;;;-143.53;100.00;58366.03;2084080;28;20197;-69
2022/05/01 03:06:18;;;;;;;63.92;32.38;;;;;;;-143.53;100.00;58366.03;2083963;28;20224;-68
2022/05/01 03:07:20;;;;;;;62.95;31.73;;;;;;;-143.53;100.00;58366.03;2084643;28;20197;-68
2022/05/01 03:08:21;;;;;;;58.30;30.50;;;;;;;-143.53;100.00;58366.03;2084395;28;20422;-68
2022/05/01 03:09:23;;;;;;;68.43;31.40;;;;;;;-143.53;100.00;58366.03;2083068;28;20200;-69
2022/05/01 03:10:24;;;;;;;65.72;32.08;;;;;;;-143.53;100.00;58366.03;2081664;28;20226;-68
2022/05/01 03:11:26;;;;;;;59.40;30.48;;;;;;;-143.53;100.00;58366.03;2084376;28;20223;-68
2022/05/01 03:12:27;;;;;;;62.35;32.95;;;;;;;-143.53;100.00;58366.03;2084848;28;20208;-69
2022/05/01 03:13:29;;;;;;;53.97;30.38;;;;;;;-143.53;100.00;58366.03;2083380;28;20203;-68
2022/05/01 03:14:30;;;;;;;63.45;30.63;;;;;;;-143.53;100.00;58366.03;2082995;28;20201;-68
2022/05/01 03:15:33;;;;;;;60.70;32.38;;;;;;;-143.53;100.00;58366.03;2082569;28;20197;-68
2022/05/01 03:16:35;;;;;;;56.70;29.73;;;;;;;-143.53;100.00;58366.03;2072723;28;20235;-69
2022/05/01 03:22:58;;;;;;;51.03;28.08;;;;;;;-143.53;100.00;58366.03;2085106;28;20181;-69
2022/05/01 03:23:59;;;;;;;58.97;30.80;;;;;;;-143.53;100.00;58366.03;2083599;28;20212;-69
2022/05/01 03:25:01;;;;;;;60.13;30.42;;;;;;;-143.53;100.00;58366.03;2084962;28;20784;-69
2022/05/01 03:26:02;;;;;;;65.65;30.85;;;;;;;-143.53;100.00;58366.03;2083163;28;20217;-69
2022/05/01 03:27:05;;;;;;;65.55;31.02;;;;;;;-143.53;100.00;58366.03;2085316;28;20203;-69
2022/05/01 03:28:06;;;;;;;56.13;30.88;;;;;;;-143.53;100.00;58366.03;2085748;28;20197;-68
2022/05/01 03:29:10;;;;;;;61.15;32.03;;;;;;;-143.53;100.00;58366.03;2083691;28;20207;-69
2022/05/01 03:30:17;;;;;;;72.55;34.60;;;;;;;-143.53;100.00;58366.03;2083084;28;20201;-68
2022/05/01 03:31:19;;;;;;;68.80;32.50;;;;;;;-143.53;100.00;58366.03;2082996;28;20236;-69
2022/05/01 03:32:20;;;;;;;63.30;32.88;;;;;;;-143.53;100.00;58366.03;2068436;28;20922;-68
2022/05/01 03:33:22;;;;;;;65.00;32.80;;;;;;;-143.53;100.00;58366.03;2078926;28;20196;-69
2022/05/01 03:34:26;;;;;;;78.60;36.83;;;;;;;-143.53;100.00;58366.03;2078906;28;20233;-69
2022/05/01 03:35:28;;;;;;;62.20;33.20;;;;;;;-143.53;100.00;58366.03;2079105;28;20288;-69
2022/05/01 03:36:30;;;;;;;59.38;33.22;;;;;;;-143.53;100.00;58366.03;2078574;28;20584;-70
2022/05/01 03:37:31;;;;;;;66.53;35.25;;;;;;;-143.53;100.00;58366.03;2085616;28;20203;-70
2022/05/01 03:38:38;;;;;;;62.10;34.60;;;;;;;-143.53;100.00;58366.03;2082601;28;20197;-70
2022/05/01 03:39:39;;;;;;;59.45;31.10;;;;;;;-143.53;100.00;58366.03;2080964;28;20202;-69
2022/05/01 03:40:42;;;;;;;70.78;34.55;;;;;;;-143.53;100.00;58366.03;2081548;28;20200;-69
2022/05/01 03:41:43;;;;;;;76.60;35.58;;;;;;;-143.53;100.00;58366.03;2081806;28;20201;-70
2022/05/01 03:42:45;;;;;;;67.28;35.05;;;;;;;-143.53;100.00;58366.03;2074842;28;20219;-70
2022/05/01 03:43:46;;;;;;;64.25;34.40;;;;;;;-143.53;100.00;58366.03;2081866;28;20197;-70
2022/05/01 03:44:48;;;;;;;65.65;33.03;;;;;;;-143.53;100.00;58366.03;2083191;28;20234;-70
2022/05/01 03:45:49;;;;;;;64.97;33.58;;;;;;;-143.53;100.00;58366.03;2083718;28;20304;-70
2022/05/01 03:46:51;;;;;;;56.35;33.30;;;;;;;-143.53;100.00;58366.03;2082054;28;20243;-70
2022/05/01 03:47:53;;;;;;;68.85;33.25;;;;;;;-143.53;100.00;58366.03;2081600;28;20213;-70
2022/05/01 03:48:54;;;;;;;60.40;32.60;;;;;;;-143.53;100.00;58366.03;2082495;28;20201;-70
2022/05/01 03:49:56;;;;;;;61.08;31.75;;;;;;;-143.53;100.00;58366.03;2083738;28;20235;-70
2022/05/01 03:51:02;;;;;;;56.53;30.52;;;;;;;-143.53;100.00;58366.03;2081607;28;20220;-71
2022/05/01 03:52:03;;;;;;;54.45;32.20;;;;;;;-143.53;100.00;58366.03;2075153;28;20759;-70
2022/05/01 03:53:06;;;;;;;61.15;30.65;;;;;;;-143.53;100.00;58366.03;2082921;28;20291;-70
2022/05/01 03:54:08;;;;;;;59.25;31.95;;;;;;;-143.53;100.00;58366.03;2079120;28;20201;-70
2022/05/01 03:55:09;;;;;;;71.30;31.88;;;;;;;-143.53;100.00;58366.03;2071994;28;20193;-70
2022/05/01 03:56:11;;;;;;;59.42;31.05;;;;;;;-143.53;100.00;58366.03;2081070;28;20220;-70
2022/05/01 03:57:13;;;;;;;56.22;30.40;;;;;;;-143.53;100.00;58366.03;2082172;28;20205;-70
2022/05/01 03:58:15;;;;;;;56.53;32.00;;;;;;;-143.53;100.00;58366.03;2082297;28;20208;-70
2022/05/01 03:59:16;;;;;;;51.33;30.38;;;;;;;-143.53;100.00;58366.03;2081675;28;20197;-70
2022/05/01 04:00:21;;;;;;;62.38;33.80;;;;;;;-143.53;100.00;58366.03;2080556;28;20189;-70
2022/05/01 04:01:22;;;;;;;54.10;30.33;;;;;;;-143.53;100.00;58366.03;2083042;28;20220;-70
2022/05/01 04:02:24;;;;;;;57.13;31.90;;;;;;;-143.53;100.00;58366.03;2082598;28;20307;-70
2022/05/01 04:03:25;;;;;;;56.88;30.30;;;;;;;-143.53;100.00;58366.03;2082996;28;20194;-70
2022/05/01 04:04:27;;;;;;;59.47;31.48;;;;;;;-143.53;100.00;58366.03;2081348;28;20208;-70
2022/05/01 04:05:28;;;;;;;60.70;31.27;;;;;;;-143.53;100.00;58366.03;2083754;28;20829;-70
2022/05/01 04:06:30;;;;;;;58.08;29.67;;;;;;;-143.53;100.00;58366.03;2082825;28;20216;-70
2022/05/01 04:07:32;;;;;;;62.03;31.27;;;;;;;-143.53;100.00;58366.03;2083732;28;20253;-70
2022/05/01 04:08:35;;;;;;;60.70;34.17;;;;;;;-143.53;100.00;58366.03;2082671;28;20200;-70
2022/05/01 04:09:37;;;;;;;62.70;32.00;;;;;;;-143.53;100.00;58366.03;2082791;28;20564;-70
2022/05/01 04:10:41;;;;;;;55.83;30.65;;;;;;;-143.53;100.00;58366.03;2084026;28;20204;-69
2022/05/01 04:11:42;;;;;;;57.70;31.15;;;;;;;-143.53;100.00;58366.03;2081093;28;20739;-70
2022/05/01 04:12:45;;;;;;;68.03;33.35;;;;;;;-143.53;100.00;58366.03;2086190;28;20213;-70
2022/05/01 04:13:48;;;;;;;55.30;30.95;;;;;;;-143.53;100.00;58366.03;2086916;28;20379;-70
2022/05/01 04:14:50;;;;;;;56.45;31.17;;;;;;;-143.53;100.00;58366.03;2086902;28;20196;-70
2022/05/01 04:15:51;;;;;;;57.25;30.98;;;;;;;-143.53;100.00;58366.03;2085655;28;20197;-70
2022/05/01 04:16:56;;;;;;;51.75;30.65;;;;;;;-143.53;100.00;58366.03;2085139;28;20214;-70
2022/05/01 04:17:58;;;;;;;54.80;29.20;;;;;;;-143.53;100.00;58366.03;2083297;28;20585;-70
2022/05/01 04:19:00;;;;;;;54.85;30.85;;;;;;;-143.53;100.00;58366.03;2082446;28;20204;-69
2022/05/01 04:20:02;;;;;;;57.95;32.13;;;;;;;-143.53;100.00;58366.03;2082570;28;20479;-70
2022/05/01 04:21:04;;;;;;;59.53;32.47;;;;;;;-143.53;100.00;58366.03;2082645;28;20259;-70
2022/05/01 04:22:05;;;;;;;71.05;30.70;;;;;;;-143.53;100.00;58366.03;2081535;28;20210;-70
2022/05/01 04:23:07;;;;;;;64.82;32.20;;;;;;;-143.53;100.00;58366.03;2082555;28;20204;-70
2022/05/01 04:24:09;;;;;;;66.57;35.15;;;;;;;-143.53;100.00;58366.03;2083430;28;20544;-70
2022/05/01 04:25:19;;;;;;;58.08;28.80;;;;;;;-143.53;100.00;58366.03;2081164;28;20224;-70
2022/05/01 04:26:20;;;;;;;68.00;31.80;;;;;;;-143.53;100.00;58366.03;2082333;28;20235;-70
2022/05/01 04:27:22;;;;;;;58.22;33.13;;;;;;;-143.53;100.00;58366.03;2082420;28;20203;-70
2022/05/01 04:28:24;;;;;;;53.90;30.67;;;;;;;-143.53;100.00;58366.03;2082342;28;20672;-70
2022/05/01 04:29:38;;;;;;;59.10;31.00;;;;;;;-143.53;100.00;58366.03;2082535;28;20197;-70
2022/05/01 04:30:40;;;;;;;63.90;31.27;;;;;;;-143.53;100.00;58366.03;2084277;28;20196;-70
2022/05/01 04:31:42;;;;;;;53.92;28.77;;;;;;;-143.53;100.00;58366.03;2083686;28;20738;-70
2022/05/01 04:32:48;;;;;;;54.83;28.77;;;;;;;-143.53;100.00;58366.03;2083327;28;20294;-70
2022/05/01 04:33:50;;;;;;;50.05;26.80;;;;;;;-143.53;100.00;58366.03;2082241;28;20603;-70
2022/05/01 04:34:51;;;;;;;50.28;28.50;;;;;;;-143.53;100.00;58366.03;2084728;28;20201;-70
2022/05/01 04:35:53;;;;;;;60.90;31.95;;;;;;;-143.53;100.00;58366.03;2082314;28;20778;-70
2022/05/01 04:36:54;;;;;;;45.97;27.63;;;;;;;-143.53;100.00;58366.03;2083119;28;20247;-69
2022/05/01 04:37:59;;;;;;;63.47;29.85;;;;;;;-143.53;100.00;58366.03;2084564;28;20201;-70
2022/05/01 04:39:00;;;;;;;57.13;28.88;;;;;;;-143.53;100.00;58366.03;2084579;28;20262;-70
2022/05/01 04:40:02;;;;;;;61.38;28.42;;;;;;;-143.53;100.00;58366.03;2085434;28;20206;-70
2022/05/01 04:41:04;;;;;;;49.38;28.75;;;;;;;-143.53;100.00;58366.03;2079812;28;20228;-70
2022/05/01 04:42:07;;;;;;;53.53;29.40;;;;;;;-143.53;100.00;58366.03;2080302;28;20193;-70
2022/05/01 04:43:12;;;;;;;60.92;28.85;;;;;;;-143.53;100.00;58366.03;2084250;28;20196;-70
2022/05/01 04:44:13;;;;;;;52.38;30.17;;;;;;;-143.53;100.00;58366.03;2085886;28;20198;-70
2022/05/01 04:45:15;;;;;;;57.92;29.33;;;;;;;-143.53;100.00;58366.03;2086766;28;20599;-70
2022/05/01 04:46:16;;;;;;;49.08;26.30;;;;;;;-143.53;100.00;58366.03;2086418;28;20216;-70
2022/05/01 04:47:18;;;;;;;44.78;26.88;;;;;;;-143.53;100.00;58366.03;2083995;28;20239;-70
2022/05/01 04:48:22;;;;;;;53.78;27.00;;;;;;;-143.53;100.00;58366.03;2085924;28;20223;-70
2022/05/01 04:49:23;;;;;;;43.97;26.58;;;;;;;-143.53;100.00;58366.03;2084576;28;20206;-70
2022/05/01 04:50:26;;;;;;;49.85;29.05;;;;;;;-143.53;100.00;58366.03;2084276;28;20197;-70
2022/05/01 04:51:27;;;;;;;48.70;26.42;;;;;;;-143.53;100.00;58366.03;2087411;28;20226;-70